createdAt,value
2018-11-10T00:00:08.865Z,7.90
2018-11-10T00:02:38.436Z,7.90
2018-11-10T00:05:07.841Z,7.90
2018-11-10T00:07:36.717Z,7.90
2018-11-10T00:10:05.914Z,7.90
2018-11-10T00:12:35.117Z,7.90
2018-11-10T00:15:04.888Z,7.90
2018-11-10T00:17:34.041Z,7.90
2018-11-10T00:20:02.933Z,7.90
2018-11-10T00:22:31.860Z,7.90
2018-11-10T00:25:01.306Z,7.90
2018-11-10T00:27:30.613Z,7.90
2018-11-10T00:29:59.569Z,7.90
2018-11-10T00:32:29.517Z,7.90
2018-11-10T00:34:59.106Z,7.90
2018-11-10T00:37:28.473Z,7.90
2018-11-10T00:39:57.472Z,7.80
2018-11-10T00:42:26.809Z,7.90
2018-11-10T00:44:56.085Z,7.80
2018-11-10T00:47:25.413Z,7.90
2018-11-10T00:49:54.605Z,7.90
2018-11-10T00:52:23.785Z,7.80
2018-11-10T00:54:53.197Z,7.80
2018-11-10T00:57:22.144Z,7.80
2018-11-10T00:59:51.456Z,7.80
2018-11-10T01:02:20.405Z,7.80
2018-11-10T01:04:49.321Z,7.80
2018-11-10T01:07:18.209Z,7.80
2018-11-10T01:09:47.102Z,7.80
2018-11-10T01:12:16.353Z,7.80
2018-11-10T01:14:45.237Z,7.80
2018-11-10T01:17:14.146Z,7.80
2018-11-10T01:19:43.188Z,7.80
2018-11-10T01:22:12.053Z,7.80
2018-11-10T01:24:41.234Z,7.80
2018-11-10T01:27:10.381Z,7.80
2018-11-10T01:29:39.298Z,7.80
2018-11-10T01:32:08.217Z,7.80
2018-11-10T01:34:37.105Z,7.80
2018-11-10T01:37:06.046Z,7.80
2018-11-10T01:39:34.945Z,7.80
2018-11-10T01:42:04.361Z,7.80
2018-11-10T01:44:33.595Z,7.70
2018-11-10T01:47:02.489Z,7.80
2018-11-10T01:49:31.399Z,7.80
2018-11-10T01:52:00.601Z,7.70
2018-11-10T01:54:29.833Z,7.70
2018-11-10T01:56:58.926Z,7.70
2018-11-10T01:59:28.093Z,7.70
2018-11-10T02:01:57.429Z,7.80
2018-11-10T02:04:26.513Z,7.80
2018-11-10T02:06:55.590Z,7.80
2018-11-10T02:09:24.716Z,7.80
2018-11-10T02:11:53.870Z,7.80
2018-11-10T02:14:22.993Z,7.80
2018-11-10T02:16:52.101Z,7.80
2018-11-10T02:19:21.261Z,7.90
2018-11-10T02:21:50.366Z,7.90
2018-11-10T02:24:19.603Z,7.80
2018-11-10T02:26:48.709Z,7.80
2018-11-10T02:29:18.042Z,7.80
2018-11-10T02:31:47.378Z,7.80
2018-11-10T02:34:16.673Z,7.80
2018-11-10T02:36:45.949Z,7.80
2018-11-10T02:39:15.394Z,7.80
2018-11-10T02:41:44.445Z,7.80
2018-11-10T02:44:13.309Z,7.80
2018-11-10T02:46:42.565Z,7.80
2018-11-10T02:49:11.510Z,7.80
2018-11-10T02:51:40.849Z,7.80
2018-11-10T02:54:10.054Z,7.90
2018-11-10T02:56:39.329Z,7.80
2018-11-10T02:59:08.638Z,7.90
2018-11-10T03:01:37.842Z,7.90
2018-11-10T03:04:07.529Z,7.90
2018-11-10T03:06:36.977Z,7.90
2018-11-10T03:09:06.974Z,7.90
2018-11-10T03:11:36.169Z,7.90
2018-11-10T03:14:05.425Z,7.90
2018-11-10T03:16:34.365Z,8.00
2018-11-10T03:19:03.306Z,8.00
2018-11-10T03:21:32.493Z,8.00
2018-11-10T03:24:01.387Z,8.00
2018-11-10T03:26:30.245Z,7.90
2018-11-10T03:28:59.721Z,7.90
2018-11-10T03:31:28.921Z,7.90
2018-11-10T03:33:58.117Z,7.90
2018-11-10T03:36:26.982Z,7.90
2018-11-10T03:38:55.933Z,7.90
2018-11-10T03:41:25.270Z,7.80
2018-11-10T03:43:54.153Z,7.80
2018-11-10T03:46:23.113Z,7.90
2018-11-10T03:48:52.034Z,7.90
2018-11-10T03:51:21.020Z,7.90
2018-11-10T03:53:49.913Z,7.90
2018-11-10T03:56:18.805Z,7.90
2018-11-10T03:58:47.693Z,7.90
2018-11-10T04:01:17.029Z,7.90
2018-11-10T04:03:46.242Z,8.00
2018-11-10T04:06:15.121Z,8.00
2018-11-10T04:08:44.433Z,8.00
2018-11-10T04:11:13.698Z,7.90
2018-11-10T04:13:43.010Z,7.90
2018-11-10T04:16:11.957Z,7.90
2018-11-10T04:18:41.213Z,7.90
2018-11-10T04:21:10.545Z,7.90
2018-11-10T04:23:39.960Z,7.90
2018-11-10T04:26:09.201Z,7.90
2018-11-10T04:28:38.077Z,7.90
2018-11-10T04:31:07.332Z,7.90
2018-11-10T04:33:36.557Z,7.90
2018-11-10T04:36:05.959Z,7.90
2018-11-10T04:38:35.185Z,7.80
2018-11-10T04:41:04.350Z,7.80
2018-11-10T04:43:33.317Z,7.80
2018-11-10T04:46:02.233Z,7.80
2018-11-10T04:48:31.467Z,7.80
2018-11-10T04:51:00.796Z,7.80
2018-11-10T04:53:29.962Z,7.80
2018-11-10T04:55:59.057Z,7.80
2018-11-10T04:58:27.949Z,7.90
2018-11-10T05:00:57.087Z,7.90
2018-11-10T05:03:26.301Z,7.90
2018-11-10T05:05:55.502Z,7.80
2018-11-10T05:08:24.799Z,7.80
2018-11-10T05:10:53.989Z,7.80
2018-11-10T05:13:22.897Z,7.90
2018-11-10T05:15:52.177Z,7.90
2018-11-10T05:18:21.072Z,7.90
2018-11-10T05:20:50.281Z,7.90
2018-11-10T05:23:19.709Z,7.90
2018-11-10T05:25:48.590Z,7.90
2018-11-10T05:28:18.022Z,7.80
2018-11-10T05:30:47.401Z,7.80
2018-11-10T05:33:17.164Z,7.80
2018-11-10T05:35:46.382Z,7.80
2018-11-10T05:38:15.662Z,7.80
2018-11-10T05:40:44.573Z,7.80
2018-11-10T05:43:13.485Z,7.80
2018-11-10T05:45:42.378Z,7.80
2018-11-10T05:48:11.269Z,7.70
2018-11-10T05:50:40.353Z,7.70
2018-11-10T05:53:09.561Z,7.70
2018-11-10T05:55:38.638Z,7.70
2018-11-10T05:58:07.725Z,7.70
2018-11-10T06:00:36.621Z,7.70
2018-11-10T06:03:05.663Z,7.70
2018-11-10T06:05:34.533Z,7.70
2018-11-10T06:08:03.437Z,7.70
2018-11-10T06:10:32.388Z,7.70
2018-11-10T06:13:01.605Z,7.70
2018-11-10T06:15:30.550Z,7.70
2018-11-10T06:17:59.414Z,7.60
2018-11-10T06:20:28.338Z,7.70
2018-11-10T06:22:57.246Z,7.70
2018-11-10T06:25:26.142Z,7.70
2018-11-10T06:27:55.037Z,7.70
2018-11-10T06:30:23.997Z,7.70
2018-11-10T06:32:53.098Z,7.70
2018-11-10T06:35:21.993Z,7.70
2018-11-10T06:37:51.353Z,7.70
2018-11-10T06:40:20.609Z,7.70
2018-11-10T06:42:49.525Z,7.70
2018-11-10T06:45:18.462Z,7.60
2018-11-10T06:47:47.359Z,7.60
2018-11-10T06:50:16.281Z,7.60
2018-11-10T06:52:45.204Z,7.60
2018-11-10T06:55:14.129Z,7.60
2018-11-10T06:57:43.063Z,7.70
2018-11-10T07:00:14.334Z,7.70
2018-11-10T07:02:43.585Z,7.70
2018-11-10T07:05:12.922Z,7.70
2018-11-10T07:07:42.353Z,7.60
2018-11-10T07:10:11.755Z,7.70
2018-11-10T07:12:40.991Z,7.60
2018-11-10T07:15:10.395Z,7.60
2018-11-10T07:17:39.760Z,7.70
2018-11-10T07:20:09.382Z,7.60
2018-11-10T07:22:38.601Z,7.60
2018-11-10T07:25:07.908Z,7.60
2018-11-10T07:27:37.256Z,7.60
2018-11-10T07:30:08.405Z,7.60
2018-11-10T07:32:37.841Z,7.60
2018-11-10T07:35:07.830Z,7.60
2018-11-10T07:37:36.867Z,7.60
2018-11-10T07:40:07.477Z,7.60
2018-11-10T07:42:36.546Z,7.60
2018-11-10T07:45:06.688Z,7.70
2018-11-10T07:47:35.891Z,7.60
2018-11-10T07:50:06.007Z,7.70
2018-11-10T07:52:35.107Z,7.70
2018-11-10T07:55:04.272Z,7.60
2018-11-10T07:57:33.186Z,7.70
2018-11-10T08:00:02.114Z,7.70
2018-11-10T08:02:30.998Z,7.70
2018-11-10T08:04:59.869Z,7.70
2018-11-10T08:07:28.793Z,7.70
2018-11-10T08:09:57.685Z,7.70
2018-11-10T08:12:26.562Z,7.60
2018-11-10T08:14:55.709Z,7.70
2018-11-10T08:17:24.645Z,7.70
2018-11-10T08:19:53.524Z,7.70
2018-11-10T08:22:22.421Z,7.70
2018-11-10T08:24:51.695Z,7.60
2018-11-10T08:27:21.450Z,7.60
2018-11-10T08:29:50.397Z,7.60
2018-11-10T08:32:19.567Z,7.60
2018-11-10T08:34:48.522Z,7.60
2018-11-10T08:37:17.430Z,7.60
2018-11-10T08:39:46.773Z,7.60
2018-11-10T08:42:16.157Z,7.50
2018-11-10T08:44:45.518Z,7.60
2018-11-10T08:47:14.945Z,7.50
2018-11-10T08:49:44.045Z,7.60
2018-11-10T08:52:13.739Z,7.50
2018-11-10T08:54:42.905Z,7.60
2018-11-10T08:57:12.280Z,7.60
2018-11-10T08:59:41.209Z,7.70
2018-11-10T09:02:10.570Z,7.70
2018-11-10T09:04:39.767Z,7.70
2018-11-10T09:07:09.173Z,7.70
2018-11-10T09:09:38.077Z,7.70
2018-11-10T09:12:08.545Z,7.70
2018-11-10T09:14:37.745Z,7.70
2018-11-10T09:17:07.061Z,7.70
2018-11-10T09:19:36.385Z,7.70
2018-11-10T09:22:06.513Z,7.80
2018-11-10T09:24:35.984Z,7.70
2018-11-10T09:27:05.158Z,7.70
2018-11-10T09:29:34.659Z,7.70
2018-11-10T09:32:03.646Z,7.70
2018-11-10T09:34:32.886Z,7.70
2018-11-10T09:37:02.410Z,7.70
2018-11-10T09:39:31.486Z,7.60
2018-11-10T09:42:00.702Z,7.80
2018-11-10T09:44:29.993Z,7.80
2018-11-10T09:46:58.936Z,7.70
2018-11-10T09:49:27.811Z,7.70
2018-11-10T09:51:56.773Z,7.70
2018-11-10T09:54:25.709Z,7.70
2018-11-10T09:56:55.133Z,7.80
2018-11-10T09:59:24.478Z,7.70
2018-11-10T10:01:53.548Z,7.60
2018-11-10T10:04:22.742Z,7.70
2018-11-10T10:06:51.950Z,7.70
2018-11-10T10:09:20.893Z,7.80
2018-11-10T10:11:49.833Z,7.70
2018-11-10T10:14:19.281Z,7.70
2018-11-10T10:16:48.314Z,7.70
2018-11-10T10:19:18.003Z,7.80
2018-11-10T10:21:46.982Z,7.80
2018-11-10T10:24:15.886Z,7.80
2018-11-10T10:26:44.791Z,7.80
2018-11-10T10:29:14.098Z,7.70
2018-11-10T10:31:42.997Z,7.70
2018-11-10T10:34:11.934Z,7.80
2018-11-10T10:36:40.845Z,7.80
2018-11-10T10:39:10.631Z,7.80
2018-11-10T10:41:40.134Z,7.80
2018-11-10T10:44:10.259Z,7.80
2018-11-10T10:46:39.159Z,7.70
2018-11-10T10:49:08.612Z,7.70
2018-11-10T10:51:37.893Z,7.80
2018-11-10T10:54:06.795Z,7.70
2018-11-10T10:56:36.093Z,7.80
2018-11-10T10:59:05.024Z,7.80
2018-11-10T11:01:39.246Z,7.90
2018-11-10T11:04:13.565Z,7.80
2018-11-10T11:06:42.773Z,7.80
2018-11-10T11:09:11.978Z,7.80
2018-11-10T11:11:41.447Z,7.90
2018-11-10T11:14:10.821Z,7.90
2018-11-10T11:16:40.101Z,7.90
2018-11-10T11:19:09.312Z,8.00
2018-11-10T11:21:38.583Z,8.00
2018-11-10T11:24:07.785Z,8.00
2018-11-10T11:26:36.709Z,8.00
2018-11-10T11:29:06.054Z,7.90
2018-11-10T11:31:35.282Z,7.90
2018-11-10T11:34:04.554Z,8.00
2018-11-10T11:36:33.433Z,8.00
2018-11-10T11:39:02.653Z,8.00
2018-11-10T11:41:32.078Z,8.10
2018-11-10T11:44:00.822Z,8.00
2018-11-10T11:46:30.054Z,8.00
2018-11-10T11:48:58.977Z,7.90
2018-11-10T11:51:28.222Z,7.90
2018-11-10T11:53:57.166Z,7.90
2018-11-10T11:56:26.565Z,7.90
2018-11-10T11:58:55.833Z,7.90
2018-11-10T12:01:25.321Z,7.90
2018-11-10T12:03:54.280Z,8.00
2018-11-10T12:06:23.607Z,7.90
2018-11-10T12:08:52.509Z,8.00
2018-11-10T12:11:21.821Z,8.10
2018-11-10T12:13:50.736Z,8.10
2018-11-10T12:16:27.194Z,8.10
2018-11-10T12:18:49.774Z,8.10
2018-11-10T12:21:19.014Z,8.10
2018-11-10T12:23:47.881Z,8.20
2018-11-10T12:26:16.806Z,8.20
2018-11-10T12:28:45.740Z,8.20
2018-11-10T12:31:14.627Z,8.20
2018-11-10T12:33:43.949Z,8.20
2018-11-10T12:36:12.885Z,8.10
2018-11-10T12:38:41.794Z,8.10
2018-11-10T12:41:10.717Z,8.20
2018-11-10T12:43:39.663Z,8.10
2018-11-10T12:46:08.579Z,8.10
2018-11-10T12:48:37.520Z,8.20
2018-11-10T12:51:06.441Z,8.10
2018-11-10T12:53:35.329Z,8.10
2018-11-10T12:56:04.240Z,8.10
2018-11-10T12:58:33.148Z,8.10
2018-11-10T13:01:02.094Z,8.10
2018-11-10T13:03:31.036Z,8.20
2018-11-10T13:05:59.949Z,8.10
2018-11-10T13:08:28.849Z,8.20
2018-11-10T13:10:57.824Z,8.20
2018-11-10T13:13:26.715Z,8.20
2018-11-10T13:15:55.616Z,8.20
2018-11-10T13:18:24.537Z,8.20
2018-11-10T13:20:53.777Z,8.20
2018-11-10T13:23:22.665Z,8.20
2018-11-10T13:25:51.586Z,8.20
2018-11-10T13:28:20.522Z,8.20
2018-11-10T13:30:49.491Z,8.30
2018-11-10T13:33:18.649Z,8.30
2018-11-10T13:35:47.521Z,8.30
2018-11-10T13:38:16.496Z,8.20
2018-11-10T13:40:45.837Z,8.20
2018-11-10T13:43:15.046Z,8.20
2018-11-10T13:45:44.233Z,8.20
2018-11-10T13:48:13.537Z,8.30
2018-11-10T13:50:42.792Z,8.30
2018-11-10T13:53:12.018Z,8.30
2018-11-10T13:55:40.979Z,8.30
2018-11-10T13:58:10.217Z,8.30
2018-11-10T14:00:39.397Z,8.30
2018-11-10T14:03:08.326Z,8.30
2018-11-10T14:05:37.235Z,8.30
2018-11-10T14:08:06.776Z,8.30
2018-11-10T14:10:35.741Z,8.30
2018-11-10T14:13:05.166Z,8.40
2018-11-10T14:15:34.154Z,8.40
2018-11-10T14:18:03.110Z,8.30
2018-11-10T14:20:32.114Z,8.40
2018-11-10T14:23:01.002Z,8.30
2018-11-10T14:25:29.947Z,8.40
2018-11-10T14:27:58.865Z,8.40
2018-11-10T14:30:27.776Z,8.40
2018-11-10T14:32:56.762Z,8.40
2018-11-10T14:35:25.685Z,8.40
2018-11-10T14:37:54.637Z,8.30
2018-11-10T14:40:23.589Z,8.30
2018-11-10T14:42:52.470Z,8.30
2018-11-10T14:45:21.394Z,8.30
2018-11-10T14:47:50.320Z,8.30
2018-11-10T14:50:19.595Z,8.30
2018-11-10T14:52:48.635Z,8.30
2018-11-10T14:55:17.477Z,8.30
2018-11-10T14:57:46.429Z,8.30
2018-11-10T15:00:17.479Z,8.30
2018-11-10T15:02:46.414Z,8.30
2018-11-10T15:05:15.373Z,8.30
2018-11-10T15:07:44.805Z,8.30
2018-11-10T15:10:15.301Z,8.30
2018-11-10T15:12:44.930Z,8.40
2018-11-10T15:15:14.969Z,8.40
2018-11-10T15:17:44.121Z,8.40
2018-11-10T15:20:14.469Z,8.40
2018-11-10T15:22:43.405Z,8.30
2018-11-10T15:25:16.751Z,8.30
2018-11-10T15:27:46.016Z,8.30
2018-11-10T15:30:17.638Z,8.30
2018-11-10T15:32:48.760Z,8.30
2018-11-10T15:35:19.113Z,8.30
2018-11-10T15:37:49.372Z,8.30
2018-11-10T15:40:19.223Z,8.30
2018-11-10T15:42:48.217Z,8.30
2018-11-10T15:45:18.224Z,8.30
2018-11-10T15:47:47.156Z,8.30
2018-11-10T15:50:17.135Z,8.30
2018-11-10T15:52:46.440Z,8.30
2018-11-10T15:55:15.360Z,8.40
2018-11-10T15:57:44.661Z,8.30
2018-11-10T16:00:15.096Z,8.30
2018-11-10T16:02:44.305Z,8.30
2018-11-10T16:05:13.860Z,8.40
2018-11-10T16:07:42.790Z,8.40
2018-11-10T16:10:11.932Z,8.40
2018-11-10T16:12:41.146Z,8.30
2018-11-10T16:15:12.370Z,8.40
2018-11-10T16:17:41.821Z,8.40
2018-11-10T16:20:13.545Z,8.30
2018-11-10T16:22:43.318Z,8.40
2018-11-10T16:25:12.241Z,8.40
2018-11-10T16:27:41.188Z,8.40
2018-11-10T16:30:13.466Z,8.40
2018-11-10T16:32:43.133Z,8.40
2018-11-10T16:35:12.042Z,8.40
2018-11-10T16:37:41.192Z,8.40
2018-11-10T16:40:12.657Z,8.40
2018-11-10T16:42:42.463Z,8.40
2018-11-10T16:45:12.038Z,8.40
2018-11-10T16:47:41.011Z,8.40
2018-11-10T16:50:10.605Z,8.40
2018-11-10T16:55:08.831Z,8.40
2018-11-10T16:57:38.434Z,8.50
2018-11-10T17:00:10.974Z,8.40
2018-11-10T17:02:39.937Z,8.50
2018-11-10T17:05:09.529Z,8.50
2018-11-10T17:07:38.744Z,8.40
2018-11-10T17:10:10.454Z,8.40
2018-11-10T17:12:39.421Z,8.40
2018-11-10T17:15:08.568Z,8.40
2018-11-10T17:17:38.142Z,8.40
2018-11-10T17:20:09.524Z,8.40
2018-11-10T17:22:38.585Z,8.50
2018-11-10T17:25:07.986Z,8.50
2018-11-10T17:27:37.423Z,8.50
2018-11-10T17:30:09.303Z,8.50
2018-11-10T17:32:38.190Z,8.50
2018-11-10T17:35:07.702Z,8.50
2018-11-10T17:37:37.887Z,8.60
2018-11-10T17:40:07.612Z,8.60
2018-11-10T17:42:36.514Z,8.50
2018-11-10T17:45:06.242Z,8.50
2018-11-10T17:47:35.651Z,8.50
2018-11-10T17:50:05.129Z,8.60
2018-11-10T17:52:34.141Z,8.60
2018-11-10T17:55:03.150Z,8.60
2018-11-10T17:57:32.650Z,8.60
2018-11-10T18:00:01.539Z,8.60
2018-11-10T18:02:30.935Z,8.60
2018-11-10T18:05:00.131Z,8.60
2018-11-10T18:07:29.055Z,8.60
2018-11-10T18:09:58.172Z,8.70
2018-11-10T18:12:28.166Z,8.70
2018-11-10T18:14:57.361Z,8.70
2018-11-10T18:17:26.833Z,8.70
2018-11-10T18:19:55.733Z,8.70
2018-11-10T18:22:25.757Z,8.70
2018-11-10T18:24:54.765Z,8.70
2018-11-10T18:27:23.737Z,8.70
2018-11-10T18:29:52.650Z,8.70
2018-11-10T18:32:21.613Z,8.70
2018-11-10T18:34:50.574Z,8.80
2018-11-10T18:37:19.705Z,8.80
2018-11-10T18:39:48.996Z,8.80
2018-11-10T18:42:17.930Z,8.80
2018-11-10T18:44:47.464Z,8.80
2018-11-10T18:47:16.785Z,8.80
2018-11-10T18:49:45.679Z,8.80
2018-11-10T18:52:14.669Z,8.80
2018-11-10T18:54:43.715Z,8.80
2018-11-10T18:57:12.937Z,8.80
2018-11-10T18:59:41.818Z,8.80
2018-11-10T19:02:10.781Z,8.80
2018-11-10T19:04:39.708Z,8.80
2018-11-10T19:07:08.715Z,8.80
2018-11-10T19:09:37.738Z,8.80
2018-11-10T19:12:06.737Z,8.80
2018-11-10T19:14:35.726Z,8.80
2018-11-10T19:17:04.705Z,8.80
2018-11-10T19:19:33.602Z,8.80
2018-11-10T19:22:02.544Z,8.80
2018-11-10T19:24:31.474Z,8.80
2018-11-10T19:27:01.074Z,8.80
2018-11-10T19:29:30.391Z,8.90
2018-11-10T19:31:59.363Z,8.80
2018-11-10T19:34:28.281Z,8.80
2018-11-10T19:36:57.172Z,8.80
2018-11-10T19:39:26.139Z,8.80
2018-11-10T19:41:55.318Z,8.80
2018-11-10T19:44:24.401Z,8.80
2018-11-10T19:46:53.328Z,8.80
2018-11-10T19:49:23.170Z,8.80
2018-11-10T19:51:52.321Z,8.90
2018-11-10T19:54:21.054Z,8.80
2018-11-10T19:56:49.981Z,8.90
2018-11-10T19:59:19.259Z,8.90
2018-11-10T20:01:48.189Z,8.80
2018-11-10T20:04:17.598Z,8.90
2018-11-10T20:06:46.589Z,8.90
2018-11-10T20:09:15.871Z,8.90
2018-11-10T20:11:44.826Z,8.90
2018-11-10T20:14:13.737Z,8.90
2018-11-10T20:16:43.026Z,8.90
2018-11-10T20:19:12.326Z,8.90
2018-11-10T20:21:41.332Z,8.90
2018-11-10T20:24:10.603Z,8.90
2018-11-10T20:26:40.139Z,8.90
2018-11-10T20:29:09.640Z,9.00
2018-11-10T20:31:39.333Z,9.00
2018-11-10T20:34:08.229Z,8.90
2018-11-10T20:36:37.192Z,8.90
2018-11-10T20:39:07.666Z,9.00
2018-11-10T20:41:36.927Z,8.90
2018-11-10T20:44:06.578Z,9.00
2018-11-10T20:46:35.877Z,9.00
2018-11-10T20:49:05.184Z,8.90
2018-11-10T20:51:34.102Z,8.90
2018-11-10T20:54:03.035Z,8.90
2018-11-10T20:56:32.419Z,8.90
2018-11-10T20:59:01.330Z,8.90
2018-11-10T21:01:30.572Z,8.90
2018-11-10T21:03:59.809Z,8.90
2018-11-10T21:06:29.099Z,9.00
2018-11-10T21:08:58.449Z,8.90
2018-11-10T21:11:27.723Z,9.00
2018-11-10T21:13:57.242Z,8.90
2018-11-10T21:16:26.177Z,8.90
2018-11-10T21:18:55.083Z,9.00
2018-11-10T21:21:24.034Z,8.90
2018-11-10T21:23:53.823Z,8.90
2018-11-10T21:26:22.739Z,9.00
2018-11-10T21:28:51.635Z,9.00
2018-11-10T21:31:20.578Z,9.00
2018-11-10T21:33:49.584Z,9.00
2018-11-10T21:36:18.481Z,9.00
2018-11-10T21:38:47.398Z,9.00
2018-11-10T21:41:16.628Z,9.00
2018-11-10T21:43:45.706Z,9.00
2018-11-10T21:46:14.854Z,9.00
2018-11-10T21:48:44.217Z,9.00
2018-11-10T21:51:13.623Z,9.00
2018-11-10T21:53:43.121Z,9.00
2018-11-10T21:56:12.254Z,9.00
2018-11-10T21:58:41.393Z,9.00
2018-11-10T22:01:10.562Z,9.10
2018-11-10T22:03:40.326Z,9.10
2018-11-10T22:06:09.865Z,9.10
2018-11-10T22:08:39.206Z,9.10
2018-11-10T22:11:08.437Z,9.10
2018-11-10T22:13:37.662Z,9.00
2018-11-10T22:16:07.310Z,9.00
2018-11-10T22:18:36.401Z,9.10
2018-11-10T22:21:05.666Z,9.10
2018-11-10T22:23:35.131Z,9.10
2018-11-10T22:26:04.063Z,9.10
2018-11-10T22:28:32.925Z,9.10
2018-11-10T22:31:02.153Z,9.10
2018-11-10T22:33:31.209Z,9.10
2018-11-10T22:36:00.310Z,9.10
2018-11-10T22:38:29.250Z,9.10
2018-11-10T22:40:58.133Z,9.10
2018-11-10T22:43:27.025Z,9.10
2018-11-10T22:45:55.989Z,9.10
2018-11-10T22:48:24.893Z,9.00
2018-11-10T22:50:54.286Z,9.10
2018-11-10T22:53:23.173Z,9.00
2018-11-10T22:55:52.783Z,9.10
2018-11-10T22:58:22.271Z,9.10
2018-11-10T23:00:56.517Z,9.10
2018-11-10T23:03:25.856Z,9.10
2018-11-10T23:05:54.729Z,9.10
2018-11-10T23:08:23.635Z,9.10
2018-11-10T23:10:52.520Z,9.00
2018-11-10T23:13:21.754Z,9.10
2018-11-10T23:15:50.713Z,9.00
2018-11-10T23:18:20.022Z,9.00
2018-11-10T23:20:49.462Z,9.00
2018-11-10T23:23:18.481Z,9.00
2018-11-10T23:25:47.390Z,9.10
2018-11-10T23:28:16.254Z,9.00
2018-11-10T23:30:45.317Z,9.00
2018-11-10T23:33:14.727Z,9.00
2018-11-10T23:35:43.657Z,9.00
2018-11-10T23:38:13.062Z,9.00
2018-11-10T23:40:41.945Z,8.90
2018-11-10T23:43:11.268Z,9.00
2018-11-10T23:45:40.517Z,8.90
2018-11-10T23:48:09.413Z,8.90
2018-11-10T23:50:38.301Z,8.90
2018-11-10T23:53:07.544Z,8.90
2018-11-10T23:55:36.429Z,8.90
2018-11-10T23:58:05.370Z,8.90
